Time;durP1;ratioP1;P1;durP2;ratioP2;P2;SDS_P1;SDS_P2;PMS_P1;PMS_P2;Temp;Humidity;BMP_temperature;BMP_pressure;BME280_temperature;BME280_humidity;BME280_pressure;Samples;Min_cycle;Max_cycle;Signal;HPM_P1;HPM_P2
2022/02/24 00:01:08;;;;;;;17.13;7.40;;;;;;;-0.95;83.42;101235.91;5005523;28;20037;-74
2022/02/24 00:03:34;;;;;;;16.30;6.37;;;;;;;-0.97;83.97;101232.38;4996138;28;20050;-74
2022/02/24 00:05:59;;;;;;;11.83;5.13;;;;;;;-1.00;84.35;101236.50;5007158;28;20045;-74
2022/02/24 00:08:25;;;;;;;14.47;5.90;;;;;;;-0.99;84.58;101239.19;5003240;28;20042;-74
2022/02/24 00:10:50;;;;;;;11.53;5.30;;;;;;;-0.96;84.88;101231.56;5005834;28;20048;-73
2022/02/24 00:13:15;;;;;;;14.93;6.03;;;;;;;-0.95;84.20;101225.56;5004100;28;20034;-74
2022/02/24 00:15:42;;;;;;;20.77;7.73;;;;;;;-0.97;83.84;101224.63;5004289;28;20046;-75
2022/02/24 00:18:07;;;;;;;17.43;8.37;;;;;;;-0.99;84.13;101212.41;4988622;28;20146;-74
2022/02/24 00:20:33;;;;;;;20.03;10.27;;;;;;;-0.98;83.80;101219.34;5005971;28;20535;-74
2022/02/24 00:22:58;;;;;;;15.00;8.47;;;;;;;-1.03;83.88;101220.81;5003489;28;20449;-74
2022/02/24 00:25:23;;;;;;;16.20;6.37;;;;;;;-1.14;83.69;101215.94;5004931;28;20040;-73
2022/02/24 00:27:49;;;;;;;17.37;7.47;;;;;;;-1.23;84.42;101223.25;5009412;28;20035;-74
2022/02/24 00:30:14;;;;;;;16.70;6.73;;;;;;;-1.31;83.98;101221.97;5006579;28;20052;-74
2022/02/24 00:32:40;;;;;;;19.03;6.63;;;;;;;-1.33;84.56;101216.69;5002842;28;20399;-74
2022/02/24 00:35:06;;;;;;;17.80;7.40;;;;;;;-1.37;83.84;101216.44;5007164;28;20402;-74
2022/02/24 00:37:31;;;;;;;13.07;5.90;;;;;;;-1.40;84.04;101219.78;5007504;28;20038;-74
2022/02/24 00:39:56;;;;;;;16.63;7.03;;;;;;;-1.43;84.37;101223.91;5005571;28;20036;-74
2022/02/24 00:42:22;;;;;;;13.50;6.00;;;;;;;-1.41;84.36;101220.59;5002286;28;20550;-74
2022/02/24 00:44:47;;;;;;;10.87;5.17;;;;;;;-1.41;84.39;101223.19;5004922;28;20457;-75
2022/02/24 00:47:12;;;;;;;13.90;6.20;;;;;;;-1.40;83.50;101221.47;5003951;28;20082;-74
2022/02/24 00:49:38;;;;;;;15.87;6.57;;;;;;;-1.44;84.47;101217.84;5003298;28;20069;-74
2022/02/24 00:52:04;;;;;;;16.20;7.10;;;;;;;-1.57;83.05;101215.41;5005315;28;20120;-74
2022/02/24 00:54:30;;;;;;;16.37;8.20;;;;;;;-1.58;83.95;101217.09;5002611;28;20045;-74
2022/02/24 00:56:55;;;;;;;14.97;7.83;;;;;;;-1.54;84.29;101207.81;4986946;28;20077;-74
2022/02/24 00:59:20;;;;;;;13.27;6.23;;;;;;;-1.52;84.38;101202.69;5004261;28;20046;-75
2022/02/24 01:01:47;;;;;;;12.23;5.90;;;;;;;-1.51;84.91;101196.72;5005695;28;20045;-74
2022/02/24 01:04:12;;;;;;;15.80;6.77;;;;;;;-1.47;84.67;101189.16;5000956;28;20038;-74
2022/02/24 01:06:37;;;;;;;15.40;6.00;;;;;;;-1.44;84.63;101183.25;5006085;28;20487;-74
2022/02/24 01:09:03;;;;;;;14.57;5.57;;;;;;;-1.44;85.31;101180.69;5002517;28;20041;-74
2022/02/24 01:11:28;;;;;;;12.80;6.00;;;;;;;-1.43;84.75;101175.59;5004210;28;20041;-74
2022/02/24 01:13:54;;;;;;;10.30;5.10;;;;;;;-1.39;84.92;101174.03;5002086;28;20451;-74
2022/02/24 01:16:20;;;;;;;14.57;5.37;;;;;;;-1.35;85.75;101169.13;4987505;28;20520;-74
2022/02/24 01:18:45;;;;;;;11.33;4.90;;;;;;;-1.30;84.56;101166.78;5002999;28;20044;-75
2022/02/24 01:21:11;;;;;;;16.83;8.90;;;;;;;-1.25;85.03;101167.00;4985310;28;20046;-74
2022/02/24 01:23:36;;;;;;;13.77;5.27;;;;;;;-1.22;84.78;101156.81;5006675;28;20120;-74
2022/02/24 01:26:01;;;;;;;12.63;5.37;;;;;;;-1.14;84.80;101145.13;5005995;28;20456;-74
2022/02/24 01:28:27;;;;;;;12.97;5.33;;;;;;;-1.09;84.88;101145.38;5004166;28;20049;-74
2022/02/24 01:30:52;;;;;;;9.23;4.50;;;;;;;-1.11;84.46;101137.50;5005581;28;20030;-74
2022/02/24 01:33:18;;;;;;;12.70;5.23;;;;;;;-1.09;85.11;101135.00;5007373;28;20042;-74
2022/02/24 01:35:43;;;;;;;11.37;4.97;;;;;;;-1.12;84.53;101134.03;5007243;28;20049;-74
2022/02/24 01:38:08;;;;;;;13.77;5.07;;;;;;;-1.15;84.72;101128.72;5002218;28;20397;-74
2022/02/24 01:40:34;;;;;;;11.17;5.03;;;;;;;-1.16;84.55;101126.91;5002353;28;20402;-74
2022/02/24 01:42:59;;;;;;;14.33;5.47;;;;;;;-1.24;85.10;101112.69;5002729;28;20560;-75
2022/02/24 01:45:24;;;;;;;12.13;4.73;;;;;;;-1.25;84.93;101115.22;5003147;28;20556;-74
2022/02/24 01:47:50;;;;;;;11.53;4.80;;;;;;;-1.28;84.83;101112.44;4986975;28;20038;-74
2022/02/24 01:50:15;;;;;;;10.73;5.00;;;;;;;-1.32;85.17;101114.88;5001637;28;20056;-74
2022/02/24 01:52:40;;;;;;;13.20;5.63;;;;;;;-1.39;85.12;101099.88;4985622;28;20080;-73
2022/02/24 01:55:07;;;;;;;13.00;4.90;;;;;;;-1.44;85.17;101090.97;5003217;28;20097;-75
2022/02/24 01:57:32;;;;;;;12.17;4.90;;;;;;;-1.48;85.32;101094.22;5001997;28;20386;-74
2022/02/24 01:59:57;;;;;;;13.67;6.07;;;;;;;-1.45;86.66;101102.13;5004372;28;20034;-74
2022/02/24 02:02:23;;;;;;;13.00;5.33;;;;;;;-1.41;85.91;101103.19;5000676;28;20483;-74
2022/02/24 02:04:50;;;;;;;9.07;4.93;;;;;;;-1.43;85.82;101105.69;5000947;28;20041;-75
2022/02/24 02:07:15;;;;;;;12.87;5.00;;;;;;;-1.43;86.44;101099.63;5004049;28;20049;-74
2022/02/24 02:09:41;;;;;;;15.03;5.83;;;;;;;-1.41;85.83;101098.91;5003195;28;20046;-74
2022/02/24 02:12:06;;;;;;;12.10;4.87;;;;;;;-1.37;86.54;101090.44;5003433;28;20087;-74
2022/02/24 02:14:32;;;;;;;10.33;5.17;;;;;;;-1.36;86.32;101084.47;4993318;28;20117;-74
2022/02/24 02:16:59;;;;;;;11.93;5.37;;;;;;;-1.35;86.34;101082.78;5001921;28;20185;-74
2022/02/24 02:19:25;;;;;;;12.93;5.20;;;;;;;-1.36;86.19;101076.72;5004253;28;20037;-74
2022/02/24 02:21:50;;;;;;;12.97;5.57;;;;;;;-1.38;85.97;101078.34;5000111;28;20034;-74
2022/02/24 02:24:16;;;;;;;10.90;4.97;;;;;;;-1.41;85.89;101075.59;5000597;28;20505;-74
2022/02/24 02:26:41;;;;;;;15.50;5.40;;;;;;;-1.42;85.84;101075.50;5001939;28;20038;-74
2022/02/24 02:29:11;;;;;;;14.53;4.73;;;;;;;-1.39;86.13;101075.66;5003372;28;20026;-74
2022/02/24 02:31:36;;;;;;;12.67;5.00;;;;;;;-1.41;85.39;101072.13;5003439;28;20038;-74
2022/02/24 02:34:06;;;;;;;8.73;4.33;;;;;;;-1.40;86.19;101073.88;5001723;28;20044;-74
2022/02/24 02:36:32;;;;;;;14.40;4.57;;;;;;;-1.39;86.27;101068.81;5003512;28;20612;-74
2022/02/24 02:38:57;;;;;;;13.87;5.50;;;;;;;-1.38;85.66;101062.78;5003544;28;20065;-74
2022/02/24 02:41:28;;;;;;;16.67;5.13;;;;;;;-1.37;85.46;101063.69;5000720;28;20113;-74
2022/02/24 02:43:53;;;;;;;11.03;4.70;;;;;;;-1.41;85.19;101069.53;5001505;28;20041;-74
2022/02/24 02:46:18;;;;;;;12.93;4.53;;;;;;;-1.44;85.21;101053.81;5003113;28;20045;-74
2022/02/24 02:48:44;;;;;;;11.67;4.57;;;;;;;-1.45;84.97;101055.53;5000404;28;20042;-74
2022/02/24 02:51:09;;;;;;;10.87;4.30;;;;;;;-1.48;85.29;101052.78;5002614;28;20038;-74
2022/02/24 02:53:34;;;;;;;10.67;4.60;;;;;;;-1.49;85.43;101056.19;5003344;28;20049;-75
2022/02/24 02:55:59;;;;;;;12.43;4.17;;;;;;;-1.49;85.43;101048.44;5005604;28;20034;-73
2022/02/24 02:58:25;;;;;;;9.80;4.23;;;;;;;-1.47;84.99;101040.72;5000395;28;20105;-74
2022/02/24 03:00:50;;;;;;;11.73;4.60;;;;;;;-1.44;84.95;101031.44;5002721;28;20038;-74
2022/02/24 03:03:15;;;;;;;11.67;4.07;;;;;;;-1.41;84.88;101022.94;5006543;28;20116;-74
2022/02/24 03:05:41;;;;;;;9.77;3.63;;;;;;;-1.46;85.05;101027.88;5011982;28;20113;-74
2022/02/24 03:08:07;;;;;;;12.63;4.93;;;;;;;-1.43;85.18;101028.00;4978736;28;20042;-74
2022/02/24 03:10:33;;;;;;;10.30;4.53;;;;;;;-1.45;85.36;101016.69;5003410;28;20033;-74
2022/02/24 03:12:58;;;;;;;7.23;3.27;;;;;;;-1.38;85.57;101005.84;4999096;28;20034;-74
2022/02/24 03:15:23;;;;;;;10.90;4.00;;;;;;;-1.24;85.11;101000.44;5001172;28;20153;-74
2022/02/24 03:17:49;;;;;;;11.00;4.20;;;;;;;-1.18;84.42;100992.94;5001127;28;20058;-74
2022/02/24 03:20:16;;;;;;;11.33;4.20;;;;;;;-1.15;83.76;100991.41;4977118;28;20061;-74
2022/02/24 03:22:43;;;;;;;8.03;3.50;;;;;;;-1.11;84.00;100993.31;4985102;28;20037;-74
2022/02/24 03:25:09;;;;;;;8.20;3.40;;;;;;;-1.11;83.01;100995.03;5003545;28;20403;-74
2022/02/24 03:27:34;;;;;;;12.43;4.63;;;;;;;-1.15;83.54;100996.59;5007465;28;20133;-74
2022/02/24 03:30:00;;;;;;;10.87;3.60;;;;;;;-1.16;82.92;100986.16;5009181;28;20042;-74
2022/02/24 03:32:25;;;;;;;9.83;3.23;;;;;;;-1.15;83.79;100972.41;4988546;28;20042;-74
2022/02/24 03:34:50;;;;;;;8.37;3.23;;;;;;;-1.11;83.82;100974.31;5008737;28;20041;-75
2022/02/24 03:37:16;;;;;;;12.77;3.80;;;;;;;-0.99;83.64;100976.63;5009353;28;20044;-74
2022/02/24 03:39:42;;;;;;;10.37;3.10;;;;;;;-0.96;82.72;100964.69;5009164;28;20056;-74
2022/02/24 03:42:10;;;;;;;7.90;3.13;;;;;;;-0.80;82.33;100961.09;5009076;28;20117;-74
2022/02/24 03:44:36;;;;;;;10.43;3.40;;;;;;;-0.67;81.76;100963.44;4996378;28;20042;-75
2022/02/24 03:47:02;;;;;;;10.20;3.30;;;;;;;-0.63;80.98;100959.28;5007940;28;20388;-74
2022/02/24 03:49:27;;;;;;;9.63;2.53;;;;;;;-0.57;81.38;100956.97;5008626;28;20040;-74
2022/02/24 03:51:52;;;;;;;8.77;3.00;;;;;;;-0.42;81.04;100961.06;5005851;28;20085;-74
2022/02/24 03:54:19;;;;;;;8.93;3.00;;;;;;;-0.31;80.32;100954.69;5009007;28;20041;-74
2022/02/24 03:56:44;;;;;;;9.33;3.23;;;;;;;-0.28;79.67;100947.03;5008551;28;20026;-74
2022/02/24 03:59:10;;;;;;;7.83;3.00;;;;;;;-0.26;79.68;100942.81;5008016;28;20532;-74
2022/02/24 04:01:35;;;;;;;8.47;2.77;;;;;;;-0.26;79.65;100940.22;5005914;28;20038;-75
2022/02/24 04:04:00;;;;;;;7.67;2.70;;;;;;;-0.22;79.55;100934.31;5009008;28;20121;-74
2022/02/24 04:06:26;;;;;;;8.37;2.90;;;;;;;-0.13;80.06;100926.94;5008994;28;20120;-75
2022/02/24 04:08:52;;;;;;;7.00;2.47;;;;;;;-0.08;79.45;100930.63;5007613;28;20405;-74
2022/02/24 04:11:17;;;;;;;10.57;4.10;;;;;;;0.01;78.75;100924.06;5006582;28;20050;-75
2022/02/24 04:13:42;;;;;;;8.37;3.60;;;;;;;0.12;78.46;100920.19;4991377;28;20038;-75
2022/02/24 04:16:07;;;;;;;11.17;3.33;;;;;;;0.19;78.02;100933.50;5007772;28;20044;-74
2022/02/24 04:18:33;;;;;;;6.73;2.30;;;;;;;0.25;78.24;100929.41;5006003;28;20031;-75
2022/02/24 04:20:58;;;;;;;7.43;2.27;;;;;;;0.39;77.65;100915.25;5010806;28;20042;-74
2022/02/24 04:23:23;;;;;;;8.63;2.87;;;;;;;0.43;77.21;100906.78;5009680;28;20048;-74
2022/02/24 04:25:49;;;;;;;7.87;2.60;;;;;;;0.46;76.43;100909.50;5005958;28;20041;-74
2022/02/24 04:28:14;;;;;;;7.47;2.50;;;;;;;0.49;75.94;100909.63;5008406;28;20049;-75
2022/02/24 04:30:39;;;;;;;7.37;2.17;;;;;;;0.56;75.46;100905.56;5007116;28;20030;-74
2022/02/24 04:33:05;;;;;;;8.00;2.37;;;;;;;0.62;74.59;100896.28;5006653;28;20038;-75
2022/02/24 04:35:30;;;;;;;7.00;2.03;;;;;;;0.70;73.82;100886.22;5008533;28;20091;-74
2022/02/24 04:37:55;;;;;;;7.70;2.40;;;;;;;0.71;73.62;100881.91;4996088;28;20045;-75
2022/02/24 04:40:21;;;;;;;10.50;2.63;;;;;;;0.62;74.12;100885.03;5005203;28;20107;-74
2022/02/24 04:42:46;;;;;;;7.13;2.27;;;;;;;0.59;73.58;100880.59;5006293;28;20070;-74
2022/02/24 04:45:12;;;;;;;9.10;2.40;;;;;;;0.58;73.60;100889.22;5006219;28;20206;-75
2022/02/24 04:47:37;;;;;;;10.07;2.20;;;;;;;0.52;73.78;100880.28;5002479;28;20034;-75
2022/02/24 04:50:05;;;;;;;7.90;2.67;;;;;;;0.44;73.84;100865.28;5011010;28;20038;-74
2022/02/24 04:52:32;;;;;;;5.97;2.13;;;;;;;0.36;74.52;100869.28;5006738;28;20117;-74
2022/02/24 04:54:58;;;;;;;9.87;2.97;;;;;;;0.30;74.66;100862.97;5008478;28;20045;-74
2022/02/24 04:57:23;;;;;;;13.47;5.80;;;;;;;0.22;75.06;100863.53;5004602;28;20038;-75
2022/02/24 04:59:48;;;;;;;12.40;4.20;;;;;;;0.16;75.48;100860.69;5006784;28;20101;-74
2022/02/24 05:02:14;;;;;;;14.93;5.60;;;;;;;0.16;75.78;100852.03;5003959;28;20033;-75
2022/02/24 05:04:39;;;;;;;11.00;4.03;;;;;;;0.13;76.29;100851.88;5003883;28;20041;-74
2022/02/24 05:07:04;;;;;;;10.37;3.73;;;;;;;0.09;76.09;100852.59;5004204;28;20042;-73
2022/02/24 05:09:30;;;;;;;10.43;4.53;;;;;;;0.12;76.70;100855.31;5008096;28;20112;-74
2022/02/24 05:11:55;;;;;;;11.40;4.53;;;;;;;0.12;76.26;100855.31;4989098;28;20100;-75
2022/02/24 05:14:20;;;;;;;6.77;2.83;;;;;;;0.11;76.66;100854.44;5006967;28;20049;-75
2022/02/24 05:16:46;;;;;;;10.40;3.20;;;;;;;0.12;75.93;100847.53;5004484;28;20052;-75
2022/02/24 05:19:11;;;;;;;8.60;2.93;;;;;;;0.15;76.19;100845.06;5005894;28;20041;-75
2022/02/24 05:21:37;;;;;;;8.97;3.30;;;;;;;0.19;76.74;100844.38;4992478;28;20042;-75
2022/02/24 05:24:03;;;;;;;8.40;3.20;;;;;;;0.22;76.62;100836.69;4983828;28;20451;-74
2022/02/24 05:26:28;;;;;;;10.37;3.27;;;;;;;0.26;76.67;100830.78;4994989;28;20026;-75
2022/02/24 05:28:53;;;;;;;8.63;3.60;;;;;;;0.26;76.86;100827.31;5010137;28;20092;-74
2022/02/24 05:31:19;;;;;;;15.17;4.87;;;;;;;0.32;76.81;100822.38;5006846;28;20083;-75
2022/02/24 05:33:44;;;;;;;19.73;6.17;;;;;;;0.42;77.67;100822.81;5003692;28;20038;-75
2022/02/24 05:36:10;;;;;;;24.00;7.77;;;;;;;0.56;78.43;100817.25;5005276;28;20045;-74
2022/02/24 05:38:35;;;;;;;11.97;5.73;;;;;;;0.68;78.08;100809.03;5007698;28;20049;-74
2022/02/24 05:41:01;;;;;;;12.47;5.47;;;;;;;0.76;77.52;100812.81;5006456;28;20022;-74
2022/02/24 05:43:26;;;;;;;16.33;4.00;;;;;;;0.85;77.23;100806.25;5001389;28;20085;-74
2022/02/24 05:45:52;;;;;;;9.75;3.53;;;;;;;0.85;76.25;100801.06;5000991;28;20037;-74
2022/02/24 05:48:17;;;;;;;11.68;3.10;;;;;;;0.96;75.73;100808.38;5004920;28;20050;-74
2022/02/24 05:50:42;;;;;;;7.00;2.70;;;;;;;1.06;75.15;100803.56;5002605;28;20054;-74
2022/02/24 05:53:08;;;;;;;11.50;2.88;;;;;;;1.09;74.62;100808.88;5003978;28;20076;-73
2022/02/24 05:55:34;;;;;;;9.98;3.30;;;;;;;1.19;74.51;100801.41;5006472;28;20036;-75
2022/02/24 05:58:00;;;;;;;8.57;2.83;;;;;;;1.32;73.94;100798.44;5007413;28;20030;-74
2022/02/24 06:00:26;;;;;;;9.30;2.70;;;;;;;1.47;73.63;100793.78;5013649;28;20046;-75
2022/02/24 06:02:51;;;;;;;12.90;5.22;;;;;;;1.60;73.37;100795.06;4987802;28;20694;-74
2022/02/24 06:05:17;;;;;;;8.38;3.03;;;;;;;1.65;72.82;100788.31;5007398;28;20061;-74
2022/02/24 06:07:43;;;;;;;6.90;2.50;;;;;;;1.71;72.62;100788.50;4989594;28;20509;-74
2022/02/24 06:10:10;;;;;;;6.68;2.30;;;;;;;1.76;72.42;100786.06;5008496;28;20030;-74
2022/02/24 06:12:35;;;;;;;10.13;2.78;;;;;;;1.85;72.22;100775.94;4988551;28;20057;-75
2022/02/24 06:15:01;;;;;;;5.53;2.38;;;;;;;1.94;71.89;100770.19;5004970;28;20509;-74
2022/02/24 06:17:26;;;;;;;6.85;2.75;;;;;;;2.01;71.28;100766.91;4986834;28;20029;-73
2022/02/24 06:19:52;;;;;;;9.55;2.75;;;;;;;2.10;71.50;100761.16;5004398;28;20088;-74
2022/02/24 06:22:17;;;;;;;9.75;2.50;;;;;;;2.18;71.38;100759.66;5007424;28;20065;-75
2022/02/24 06:24:43;;;;;;;8.75;2.83;;;;;;;2.27;71.34;100759.06;5003499;28;20066;-74
2022/02/24 06:27:08;;;;;;;9.07;2.88;;;;;;;2.37;70.64;100762.00;5000748;28;20073;-73
2022/02/24 06:29:33;;;;;;;7.13;2.65;;;;;;;2.45;69.70;100762.22;5003060;28;20085;-75
2022/02/24 06:31:59;;;;;;;5.80;2.22;;;;;;;2.52;70.26;100761.59;5001990;28;20085;-74
2022/02/24 06:34:24;;;;;;;7.18;2.85;;;;;;;2.62;69.66;100755.81;4983395;28;20133;-75
2022/02/24 06:36:49;;;;;;;10.95;2.75;;;;;;;2.73;69.62;100755.25;5006075;28;20129;-74
2022/02/24 06:39:15;;;;;;;6.82;2.63;;;;;;;2.79;69.71;100761.50;5003343;28;20038;-74
2022/02/24 06:41:41;;;;;;;6.82;2.33;;;;;;;2.86;69.22;100741.72;5001354;28;20088;-74
2022/02/24 06:44:06;;;;;;;10.63;2.53;;;;;;;2.90;68.68;100737.47;5001316;28;20479;-74
2022/02/24 06:46:32;;;;;;;9.45;2.83;;;;;;;2.90;68.83;100725.31;5001860;28;20061;-74
2022/02/24 06:48:57;;;;;;;7.15;2.70;;;;;;;2.99;69.02;100722.09;5007499;28;20486;-74
2022/02/24 06:51:22;;;;;;;7.43;2.67;;;;;;;3.04;68.67;100718.75;5002774;28;20405;-75
2022/02/24 06:53:48;;;;;;;7.00;2.63;;;;;;;3.07;68.55;100711.03;5001220;28;20038;-74
2022/02/24 06:56:13;;;;;;;5.05;2.40;;;;;;;3.13;68.55;100709.41;4986815;28;20038;-73
2022/02/24 06:58:38;;;;;;;5.78;2.72;;;;;;;3.27;68.19;100708.97;4988024;28;20085;-75
2022/02/24 07:01:04;;;;;;;7.60;2.92;;;;;;;3.40;67.64;100704.91;5002062;28;20088;-74
2022/02/24 07:03:29;;;;;;;10.52;3.28;;;;;;;3.51;67.18;100710.41;5003182;28;20038;-74
2022/02/24 07:05:55;;;;;;;9.32;3.40;;;;;;;3.72;67.01;100703.13;5005304;28;20117;-74
2022/02/24 07:08:20;;;;;;;8.93;3.40;;;;;;;3.94;65.88;100698.41;5000492;28;20030;-75
2022/02/24 07:10:45;;;;;;;5.63;2.13;;;;;;;4.16;65.84;100698.03;5003097;28;20073;-74
2022/02/24 07:13:11;;;;;;;8.55;2.72;;;;;;;4.33;65.24;100701.03;5000129;28;20072;-74
2022/02/24 07:15:36;;;;;;;7.05;2.58;;;;;;;4.59;64.42;100705.94;5001858;28;20465;-75
2022/02/24 07:18:02;;;;;;;7.63;2.60;;;;;;;4.71;64.40;100700.94;5003669;28;20089;-75
2022/02/24 07:20:27;;;;;;;9.20;2.83;;;;;;;4.89;63.69;100704.78;5000899;28;20038;-74
2022/02/24 07:22:52;;;;;;;8.57;2.70;;;;;;;4.93;61.92;100696.16;5002614;28;20065;-74
2022/02/24 07:25:18;;;;;;;8.00;2.72;;;;;;;5.04;63.35;100692.03;5000966;28;20076;-75
2022/02/24 07:27:44;;;;;;;9.52;2.90;;;;;;;5.20;63.09;100685.31;4993123;28;20044;-75
2022/02/24 07:30:11;;;;;;;8.35;2.50;;;;;;;5.38;62.64;100687.41;5005875;28;20040;-75
2022/02/24 07:32:37;;;;;;;9.63;3.95;;;;;;;5.53;62.71;100684.13;4981029;28;20048;-75
2022/02/24 07:35:02;;;;;;;7.47;2.67;;;;;;;5.52;61.42;100678.03;5007433;28;20030;-73
2022/02/24 07:37:28;;;;;;;11.05;3.58;;;;;;;5.58;61.94;100680.78;5008050;28;20037;-75
2022/02/24 07:39:53;;;;;;;13.18;7.25;;;;;;;5.58;61.36;100679.88;5007216;28;20038;-74
2022/02/24 07:42:19;;;;;;;11.77;5.30;;;;;;;5.54;61.52;100668.47;5006697;28;20036;-74
2022/02/24 07:44:45;;;;;;;8.38;2.95;;;;;;;5.52;61.03;100672.78;5006123;28;20026;-75
2022/02/24 07:47:11;;;;;;;7.57;2.20;;;;;;;5.53;61.46;100661.50;5003517;28;20153;-74
2022/02/24 07:49:36;;;;;;;8.50;2.60;;;;;;;5.57;61.88;100658.03;5000874;28;20081;-75
2022/02/24 07:52:02;;;;;;;6.45;2.60;;;;;;;5.59;61.26;100664.19;5002163;28;20038;-74
2022/02/24 07:54:27;;;;;;;8.80;2.65;;;;;;;5.62;61.08;100653.75;4981700;28;20490;-74
2022/02/24 07:56:52;;;;;;;9.85;3.88;;;;;;;5.56;60.85;100658.03;5004055;28;20125;-75
2022/02/24 07:59:19;;;;;;;8.90;3.00;;;;;;;5.69;60.99;100650.38;5005162;28;20118;-75
2022/02/24 08:01:44;;;;;;;7.78;2.92;;;;;;;5.86;60.39;100647.13;4994114;28;20089;-74
2022/02/24 08:04:10;;;;;;;8.68;3.05;;;;;;;6.06;60.79;100656.22;5004623;28;20038;-74
2022/02/24 08:06:35;;;;;;;8.15;3.00;;;;;;;6.32;59.68;100651.31;5003279;28;20458;-75
2022/02/24 08:09:01;;;;;;;6.75;2.88;;;;;;;6.66;59.54;100643.00;5004560;28;20032;-74
2022/02/24 08:11:27;;;;;;;9.23;3.05;;;;;;;6.91;58.74;100639.75;5003236;28;20533;-75
2022/02/24 08:13:52;;;;;;;8.18;2.58;;;;;;;6.99;58.56;100638.09;5005947;28;20041;-74
2022/02/24 08:16:17;;;;;;;8.70;3.70;;;;;;;7.06;58.52;100632.91;5003114;28;20065;-75
2022/02/24 08:18:43;;;;;;;9.52;3.33;;;;;;;6.91;58.40;100629.25;5005504;28;20062;-75
2022/02/24 08:21:08;;;;;;;9.50;2.83;;;;;;;6.75;58.16;100625.59;5005389;28;20109;-74
2022/02/24 08:23:34;;;;;;;9.63;3.22;;;;;;;6.68;58.18;100617.66;5006817;28;20057;-75
2022/02/24 08:26:00;;;;;;;8.30;3.45;;;;;;;6.58;58.55;100612.31;4989506;28;20125;-75
2022/02/24 08:28:25;;;;;;;9.90;2.92;;;;;;;6.76;58.98;100613.38;5003085;28;20136;-73
2022/02/24 08:30:51;;;;;;;6.03;2.70;;;;;;;6.75;58.87;100614.22;4994637;28;20046;-75
2022/02/24 08:33:16;;;;;;;10.15;3.70;;;;;;;6.94;58.81;100610.03;5004444;28;20057;-75
2022/02/24 08:35:42;;;;;;;10.35;2.97;;;;;;;7.19;58.32;100598.91;5007745;28;20453;-74
2022/02/24 08:38:07;;;;;;;7.25;2.95;;;;;;;7.43;57.04;100598.22;5005756;28;20116;-75
2022/02/24 08:40:33;;;;;;;11.50;2.35;;;;;;;7.68;56.60;100585.31;5010301;28;20040;-74
2022/02/24 08:43:01;;;;;;;8.43;2.72;;;;;;;7.93;56.55;100590.69;5005632;28;20500;-74
2022/02/24 08:45:28;;;;;;;12.82;3.17;;;;;;;8.10;55.73;100591.66;5009379;28;20030;-75
2022/02/24 08:47:54;;;;;;;6.97;2.65;;;;;;;8.01;55.61;100576.72;5009627;28;20036;-75
2022/02/24 08:50:20;;;;;;;7.43;2.35;;;;;;;8.04;55.44;100574.13;5006082;28;20396;-75
2022/02/24 08:52:45;;;;;;;6.90;2.20;;;;;;;8.15;54.74;100563.66;5006867;28;20045;-75
2022/02/24 08:55:11;;;;;;;6.88;2.40;;;;;;;8.22;55.28;100564.53;5008958;28;20038;-74
2022/02/24 08:57:36;;;;;;;6.03;2.20;;;;;;;8.29;55.04;100569.81;5004420;28;20041;-75
2022/02/24 09:00:05;;;;;;;7.45;2.63;;;;;;;8.27;54.34;100562.81;5007927;28;20065;-75
2022/02/24 09:02:30;;;;;;;9.18;2.83;;;;;;;8.34;55.49;100549.69;5004707;28;20052;-74
2022/02/24 09:04:56;;;;;;;6.60;2.83;;;;;;;8.52;55.24;100545.41;5006087;28;20494;-75
2022/02/24 09:07:21;;;;;;;10.10;2.38;;;;;;;8.50;54.35;100553.28;5010590;28;20030;-75
2022/02/24 09:09:47;;;;;;;7.93;2.72;;;;;;;8.54;54.65;100546.25;5003363;28;20034;-74
2022/02/24 09:12:13;;;;;;;5.68;2.20;;;;;;;8.62;55.56;100547.19;5006352;28;20049;-75
2022/02/24 09:14:38;;;;;;;7.78;3.03;;;;;;;8.74;55.35;100547.19;5004026;28;20042;-74
2022/02/24 09:17:04;;;;;;;11.65;2.40;;;;;;;8.81;55.30;100541.94;5002339;28;20034;-75
2022/02/24 09:19:31;;;;;;;9.18;3.35;;;;;;;8.81;54.75;100539.31;5004938;28;20061;-75
2022/02/24 09:21:56;;;;;;;5.78;2.38;;;;;;;8.85;54.52;100531.41;5002499;28;20491;-75
2022/02/24 09:24:22;;;;;;;7.00;2.63;;;;;;;8.78;55.21;100530.53;5002297;28;20105;-75
2022/02/24 09:26:48;;;;;;;10.63;5.03;;;;;;;8.73;56.10;100527.03;5004298;28;20034;-75
2022/02/24 09:29:14;;;;;;;9.38;3.33;;;;;;;8.64;56.12;100521.72;4984153;28;20030;-75
2022/02/24 09:31:40;;;;;;;8.30;4.68;;;;;;;8.55;56.43;100513.84;5003902;28;20038;-75
2022/02/24 09:34:06;;;;;;;7.75;2.85;;;;;;;8.54;56.41;100509.44;5003898;28;20156;-75
2022/02/24 09:36:31;;;;;;;5.88;2.42;;;;;;;8.51;57.00;100502.44;5007114;28;20121;-75
2022/02/24 09:38:56;;;;;;;8.13;2.55;;;;;;;8.64;57.12;100505.06;5008359;28;20169;-75
2022/02/24 09:41:23;;;;;;;7.25;2.70;;;;;;;8.83;56.93;100496.34;5004200;28;20038;-75
2022/02/24 09:43:50;;;;;;;9.70;2.63;;;;;;;9.04;56.44;100491.91;4985617;28;20049;-75
2022/02/24 09:46:15;;;;;;;6.30;2.40;;;;;;;9.16;56.20;100489.28;5003672;28;20405;-75
2022/02/24 09:48:43;;;;;;;11.85;2.63;;;;;;;9.30;55.44;100490.16;5001538;28;20043;-76
2022/02/24 09:51:14;;;;;;;6.32;2.60;;;;;;;9.40;55.43;100488.38;4986642;28;20037;-75
2022/02/24 09:53:41;;;;;;;6.40;2.70;;;;;;;9.34;55.61;100480.50;5004246;28;21019;-74
2022/02/24 09:56:19;;;;;;;7.90;2.92;;;;;;;9.47;55.37;100483.97;5005784;28;20129;-75
2022/02/24 09:58:45;;;;;;;7.80;2.45;;;;;;;9.54;56.13;100476.06;5005772;28;20125;-75
2022/02/24 10:01:12;;;;;;;4.97;1.83;;;;;;;9.60;55.23;100481.28;5004521;28;20486;-75
2022/02/24 10:03:43;;;;;;;6.03;2.20;;;;;;;9.63;55.51;100468.09;5003085;28;20038;-74
2022/02/24 10:06:10;;;;;;;8.48;2.00;;;;;;;9.83;54.81;100472.44;4983671;28;20038;-75
2022/02/24 10:08:41;;;;;;;7.03;1.92;;;;;;;9.86;55.10;100469.78;5008187;28;20044;-74
2022/02/24 10:11:17;;;;;;;6.97;1.95;;;;;;;9.87;55.04;100461.00;5004691;28;20162;-75
2022/02/24 10:13:59;;;;;;;10.88;3.17;;;;;;;9.94;54.82;100465.34;5004654;28;20034;-75
2022/02/24 10:16:25;;;;;;;9.87;2.67;;;;;;;10.06;55.16;100465.31;5007069;28;20030;-75
2022/02/24 10:18:50;;;;;;;14.75;4.05;;;;;;;10.16;54.78;100466.13;5004445;28;20779;-75
2022/02/24 10:21:18;;;;;;;8.82;3.17;;;;;;;10.25;54.70;100457.28;5005483;28;20030;-74
2022/02/24 10:23:44;;;;;;;7.32;2.10;;;;;;;10.26;54.36;100457.25;5002668;28;20038;-75
2022/02/24 10:26:14;;;;;;;8.70;2.85;;;;;;;10.35;54.26;100451.13;5007284;28;20041;-75
2022/02/24 10:28:47;;;;;;;6.75;2.30;;;;;;;10.48;53.88;100447.50;5006894;28;20038;-75
2022/02/24 10:31:16;;;;;;;;;;;;;;;10.40;53.64;100441.41;4987373;28;20038;-74
2022/02/24 10:33:51;;;;;;;8.55;2.30;;;;;;;10.42;53.15;100442.25;5004443;28;19913;-75
2022/02/24 10:36:22;;;;;;;6.40;2.38;;;;;;;10.33;53.53;100431.78;5003640;28;20057;-75
2022/02/24 10:39:25;;;;;;;7.75;2.80;;;;;;;10.38;54.33;100437.03;4989148;28;20077;-75
2022/02/24 10:41:52;;;;;;;6.18;2.13;;;;;;;10.41;54.70;100427.31;5004425;28;20050;-74
2022/02/24 10:44:23;;;;;;;5.25;2.20;;;;;;;10.34;54.11;100425.59;5005597;28;20030;-75
2022/02/24 10:47:12;;;;;;;7.45;3.10;;;;;;;10.33;54.69;100415.94;5006173;28;20583;-74
2022/02/24 10:49:43;;;;;;;8.45;3.20;;;;;;;10.28;55.34;100407.19;5001413;28;20042;-75
2022/02/24 10:52:18;;;;;;;8.23;2.88;;;;;;;10.25;54.85;100404.53;5001749;28;20045;-75
2022/02/24 10:54:58;;;;;;;7.95;2.45;;;;;;;10.36;55.06;100404.50;5003414;28;20037;-75
2022/02/24 10:57:26;;;;;;;5.88;2.10;;;;;;;10.40;54.75;100403.56;4991178;28;20375;-75
2022/02/24 10:59:57;;;;;;;7.07;2.55;;;;;;;10.47;54.42;100390.31;4986969;28;20506;-74
2022/02/24 11:02:24;;;;;;;7.22;2.17;;;;;;;10.56;54.05;100388.50;5008136;28;20038;-74
2022/02/24 11:07:23;;;;;;;7.47;2.80;;;;;;;10.66;54.35;100382.25;4924600;29;20489;-73
2022/02/24 11:09:49;;;;;;;8.48;2.40;;;;;;;10.71;53.63;100380.44;4927606;29;20047;-76
2022/02/24 11:12:16;;;;;;;7.07;2.05;;;;;;;10.60;53.57;100380.53;4923258;29;20035;-76
2022/02/24 11:14:45;;;;;;;5.82;2.20;;;;;;;10.58;54.33;100368.25;4925637;29;20040;-76
2022/02/24 11:17:12;;;;;;;7.28;2.65;;;;;;;10.56;54.52;100367.38;4924985;29;20047;-75
2022/02/24 11:19:40;;;;;;;7.32;2.40;;;;;;;10.59;53.99;100362.09;4924951;29;20054;-75
2022/02/24 11:22:07;;;;;;;5.75;3.13;;;;;;;10.63;54.09;100362.03;4922843;29;20039;-75
2022/02/24 11:24:34;;;;;;;11.68;4.75;;;;;;;10.73;54.88;100352.28;4925674;29;20043;-76